TUI925 EDDS-EGKK
Flight info
| Callsign | TUI925 |
|---|---|
| Flight time | 1h 18m |
| Altitude | 36000 |
| Route | VESID4B VESID Y127 BANIM L608 LIRSU DCT SPI DCT DENUT L610 TEBRA |
| Aircraft | B738/M-SDE2E3FGHIRWXY/LB1 |
Departure
| Time | 2026-05-05 20:28 |
|---|---|
| Airport | Stuttgart Airport (EDDS) |
Arrival
| Time | 2026-05-05 21:46 |
|---|---|
| Airport | London Gatwick Airport (EGKK) |
| Time | Latitude | Longitude | Altitude | Speed | Heading |
|---|---|---|---|---|---|
| 2026-05-05 19:52 | 48.68985 | 9.20417 | 1278 ft | 0 kts | 163° |
| 2026-05-05 20:20 | 48.68984 | 9.20418 | 1277 ft | 0 kts | 163° |
| 2026-05-05 20:20 | 48.68958 | 9.20430 | 1276 ft | 6 kts | 161° |
| 2026-05-05 20:20 | 48.68928 | 9.20518 | 1272 ft | 14 kts | 88° |
| 2026-05-05 20:20 | 48.68961 | 9.20693 | 1266 ft | 20 kts | 74° |
| 2026-05-05 20:21 | 48.69013 | 9.20944 | 1257 ft | 29 kts | 73° |
| 2026-05-05 20:21 | 48.69077 | 9.21284 | 1249 ft | 37 kts | 78° |
| 2026-05-05 20:21 | 48.69135 | 9.21598 | 1246 ft | 25 kts | 74° |
| 2026-05-05 20:21 | 48.69168 | 9.21777 | 1243 ft | 16 kts | 76° |
| 2026-05-05 20:22 | 48.69203 | 9.21970 | 1237 ft | 21 kts | 75° |
| 2026-05-05 20:22 | 48.69247 | 9.22200 | 1232 ft | 22 kts | 74° |
| 2026-05-05 20:22 | 48.69297 | 9.22444 | 1226 ft | 24 kts | 74° |
| 2026-05-05 20:22 | 48.69346 | 9.22701 | 1218 ft | 27 kts | 75° |
| 2026-05-05 20:23 | 48.69398 | 9.22983 | 1210 ft | 28 kts | 76° |
| 2026-05-05 20:23 | 48.69456 | 9.23276 | 1203 ft | 27 kts | 75° |
| 2026-05-05 20:23 | 48.69505 | 9.23537 | 1199 ft | 26 kts | 75° |
| 2026-05-05 20:23 | 48.69553 | 9.23806 | 1194 ft | 26 kts | 76° |
| 2026-05-05 20:24 | 48.69602 | 9.24049 | 1190 ft | 19 kts | 75° |
| 2026-05-05 20:24 | 48.69586 | 9.24214 | 1186 ft | 13 kts | 116° |
| 2026-05-05 20:24 | 48.69544 | 9.24290 | 1182 ft | 2 kts | 156° |
| 2026-05-05 20:26 | 48.69513 | 9.24307 | 1181 ft | 9 kts | 162° |
| 2026-05-05 20:26 | 48.69435 | 9.24316 | 1179 ft | 11 kts | 199° |
| 2026-05-05 20:26 | 48.69381 | 9.24247 | 1180 ft | 9 kts | 244° |
| 2026-05-05 20:27 | 48.69364 | 9.24172 | 1181 ft | 5 kts | 254° |
| 2026-05-05 20:27 | 48.69330 | 9.23995 | 1183 ft | 43 kts | 255° |
| 2026-05-05 20:27 | 48.69185 | 9.23207 | 1201 ft | 111 kts | 258° |
| 2026-05-05 20:27 | 48.68914 | 9.21756 | 1244 ft | 169 kts | 253° |
| 2026-05-05 20:28 | 48.68526 | 9.19990 | 1828 ft | 177 kts | 248° |
| 2026-05-05 20:28 | 48.68146 | 9.18292 | 2758 ft | 171 kts | 251° |
| 2026-05-05 20:28 | 48.67841 | 9.16701 | 3624 ft | 157 kts | 256° |
| 2026-05-05 20:28 | 48.67580 | 9.15011 | 3945 ft | 175 kts | 256° |
| 2026-05-05 20:29 | 48.67287 | 9.13203 | 4458 ft | 182 kts | 255° |
| 2026-05-05 20:29 | 48.66951 | 9.11282 | 4794 ft | 200 kts | 256° |
| 2026-05-05 20:29 | 48.66962 | 9.09144 | 5253 ft | 214 kts | 285° |
| 2026-05-05 20:29 | 48.67753 | 9.07236 | 5941 ft | 221 kts | 313° |
| 2026-05-05 20:30 | 48.69041 | 9.05887 | 6504 ft | 234 kts | 331° |
| 2026-05-05 20:30 | 48.70587 | 9.05022 | 7076 ft | 245 kts | 339° |
| 2026-05-05 20:30 | 48.72322 | 9.04238 | 7278 ft | 272 kts | 339° |
| 2026-05-05 20:30 | 48.74130 | 9.03392 | 8081 ft | 273 kts | 340° |
| 2026-05-05 20:31 | 48.75937 | 9.02670 | 8840 ft | 276 kts | 341° |
| 2026-05-05 20:31 | 48.77887 | 9.01913 | 9166 ft | 296 kts | 341° |
| 2026-05-05 20:31 | 48.79814 | 9.01091 | 10043 ft | 292 kts | 338° |
| 2026-05-05 20:31 | 48.81777 | 9.00073 | 10487 ft | 305 kts | 335° |
| 2026-05-05 20:32 | 48.83805 | 8.98898 | 10919 ft | 318 kts | 334° |
| 2026-05-05 20:32 | 48.85887 | 8.97647 | 11574 ft | 324 kts | 334° |
| 2026-05-05 20:32 | 48.87987 | 8.96382 | 12230 ft | 329 kts | 334° |
| 2026-05-05 20:32 | 48.90093 | 8.95120 | 12923 ft | 332 kts | 334° |
| 2026-05-05 20:33 | 48.92244 | 8.93839 | 13580 ft | 336 kts | 334° |
| 2026-05-05 20:33 | 48.94452 | 8.92530 | 14238 ft | 340 kts | 335° |
| 2026-05-05 20:33 | 48.96650 | 8.91227 | 14855 ft | 344 kts | 335° |
| 2026-05-05 20:33 | 48.98886 | 8.89897 | 15464 ft | 348 kts | 335° |
| 2026-05-05 20:34 | 49.01144 | 8.88550 | 16073 ft | 352 kts | 335° |
| 2026-05-05 20:34 | 49.03429 | 8.87184 | 16647 ft | 357 kts | 335° |
| 2026-05-05 20:34 | 49.05740 | 8.85802 | 17248 ft | 360 kts | 335° |
| 2026-05-05 20:34 | 49.08077 | 8.84402 | 17825 ft | 363 kts | 335° |
| 2026-05-05 20:35 | 49.10422 | 8.82997 | 18431 ft | 365 kts | 336° |
| 2026-05-05 20:35 | 49.12800 | 8.81577 | 18974 ft | 369 kts | 337° |
| 2026-05-05 20:35 | 49.15251 | 8.80315 | 19528 ft | 374 kts | 342° |
| 2026-05-05 20:35 | 49.17795 | 8.79574 | 19989 ft | 381 kts | 354° |
| 2026-05-05 20:36 | 49.20452 | 8.79502 | 20509 ft | 385 kts | 1° |
| 2026-05-05 20:36 | 49.23146 | 8.79797 | 21017 ft | 388 kts | 5° |
| 2026-05-05 20:36 | 49.25827 | 8.80224 | 21547 ft | 390 kts | 6° |
| 2026-05-05 20:36 | 49.28516 | 8.80675 | 22035 ft | 393 kts | 6° |
| 2026-05-05 20:37 | 49.31254 | 8.81123 | 22511 ft | 396 kts | 6° |
| 2026-05-05 20:37 | 49.33061 | 8.81409 | 22853 ft | 397 kts | 6° |
| 2026-05-05 20:37 | 49.36764 | 8.81972 | 23507 ft | 401 kts | 6° |
| 2026-05-05 20:37 | 49.39531 | 8.82378 | 23953 ft | 404 kts | 6° |
| 2026-05-05 20:38 | 49.42324 | 8.82778 | 24394 ft | 407 kts | 6° |
| 2026-05-05 20:38 | 49.45145 | 8.83176 | 24825 ft | 410 kts | 6° |
| 2026-05-05 20:38 | 49.47993 | 8.83545 | 25250 ft | 413 kts | 4° |
| 2026-05-05 20:38 | 49.50857 | 8.83583 | 25690 ft | 416 kts | 358° |
| 2026-05-05 20:39 | 49.53734 | 8.83034 | 26058 ft | 420 kts | 348° |
| 2026-05-05 20:39 | 49.56542 | 8.81784 | 26409 ft | 424 kts | 340° |
| 2026-05-05 20:39 | 49.59253 | 8.79962 | 26852 ft | 426 kts | 333° |
| 2026-05-05 20:39 | 49.61798 | 8.77732 | 27151 ft | 429 kts | 326° |
| 2026-05-05 20:40 | 49.64152 | 8.74859 | 27521 ft | 431 kts | 316° |
| 2026-05-05 20:40 | 49.66259 | 8.71539 | 27816 ft | 434 kts | 311° |
| 2026-05-05 20:40 | 49.68225 | 8.68049 | 28169 ft | 436 kts | 309° |
| 2026-05-05 20:40 | 49.70148 | 8.64413 | 28478 ft | 439 kts | 308° |
| 2026-05-05 20:41 | 49.72092 | 8.60790 | 28809 ft | 442 kts | 310° |
| 2026-05-05 20:41 | 49.74197 | 8.57311 | 29160 ft | 445 kts | 314° |
| 2026-05-05 20:41 | 49.76402 | 8.53959 | 29477 ft | 448 kts | 316° |
| 2026-05-05 20:41 | 49.78678 | 8.50646 | 29806 ft | 451 kts | 317° |
| 2026-05-05 20:42 | 49.80955 | 8.47380 | 30119 ft | 453 kts | 317° |
| 2026-05-05 20:42 | 49.83228 | 8.43923 | 30398 ft | 456 kts | 312° |
| 2026-05-05 20:42 | 49.85261 | 8.40167 | 30662 ft | 459 kts | 306° |
| 2026-05-05 20:42 | 49.87030 | 8.36067 | 30938 ft | 460 kts | 299° |
| 2026-05-05 20:43 | 49.88506 | 8.31689 | 31258 ft | 460 kts | 292° |
| 2026-05-05 20:43 | 49.89682 | 8.27072 | 31481 ft | 461 kts | 286° |
| 2026-05-05 20:43 | 49.90562 | 8.22201 | 31749 ft | 462 kts | 281° |
| 2026-05-05 20:43 | 49.91250 | 8.17381 | 32046 ft | 463 kts | 279° |
| 2026-05-05 20:44 | 49.91929 | 8.12456 | 32305 ft | 465 kts | 280° |
| 2026-05-05 20:44 | 49.92660 | 8.07527 | 32613 ft | 466 kts | 281° |
| 2026-05-05 20:44 | 49.93453 | 8.02653 | 32873 ft | 468 kts | 282° |
| 2026-05-05 20:44 | 49.94250 | 7.97780 | 33022 ft | 472 kts | 280° |
| 2026-05-05 20:45 | 49.95366 | 7.87768 | 33606 ft | 471 kts | 275° |
| 2026-05-05 20:45 | 49.95789 | 7.82698 | 33808 ft | 473 kts | 274° |
| 2026-05-05 20:45 | 49.96171 | 7.77672 | 34173 ft | 471 kts | 274° |
| 2026-05-05 20:46 | 49.96538 | 7.72639 | 34449 ft | 471 kts | 274° |
| 2026-05-05 20:46 | 49.96901 | 7.67605 | 34756 ft | 470 kts | 274° |
| 2026-05-05 20:46 | 49.97265 | 7.62572 | 34958 ft | 469 kts | 274° |
| 2026-05-05 20:46 | 49.97630 | 7.57573 | 35246 ft | 465 kts | 274° |
| 2026-05-05 20:47 | 49.97990 | 7.52664 | 35492 ft | 462 kts | 274° |
| 2026-05-05 20:47 | 49.98357 | 7.47717 | 35686 ft | 461 kts | 274° |
| 2026-05-05 20:47 | 49.98729 | 7.42756 | 35815 ft | 461 kts | 274° |
| 2026-05-05 20:47 | 49.99094 | 7.37848 | 35957 ft | 466 kts | 274° |
| 2026-05-05 20:48 | 49.99465 | 7.32848 | 35836 ft | 459 kts | 274° |
| 2026-05-05 20:48 | 49.99832 | 7.27973 | 35833 ft | 458 kts | 274° |
| 2026-05-05 20:48 | 50.00574 | 7.18060 | 35829 ft | 463 kts | 274° |
| 2026-05-05 20:49 | 50.01306 | 7.08192 | 35835 ft | 461 kts | 274° |
| 2026-05-05 20:49 | 50.02043 | 6.98330 | 35831 ft | 462 kts | 275° |
| 2026-05-05 20:50 | 50.03482 | 6.88595 | 35828 ft | 465 kts | 289° |
| 2026-05-05 20:50 | 50.06267 | 6.79529 | 35826 ft | 467 kts | 297° |
| 2026-05-05 20:51 | 50.09437 | 6.70805 | 35831 ft | 466 kts | 298° |
| 2026-05-05 20:51 | 50.12668 | 6.62031 | 35818 ft | 467 kts | 298° |
| 2026-05-05 20:52 | 50.15848 | 6.53249 | 35820 ft | 465 kts | 298° |
| 2026-05-05 20:52 | 50.18993 | 6.44439 | 35811 ft | 468 kts | 298° |
| 2026-05-05 20:53 | 50.22327 | 6.35768 | 35802 ft | 465 kts | 301° |
| 2026-05-05 20:53 | 50.25790 | 6.27244 | 35821 ft | 467 kts | 301° |
| 2026-05-05 20:54 | 50.29274 | 6.18675 | 35806 ft | 467 kts | 301° |
| 2026-05-05 20:54 | 50.32726 | 6.10093 | 35807 ft | 467 kts | 300° |
| 2026-05-05 20:55 | 50.36139 | 6.01524 | 35800 ft | 467 kts | 300° |
| 2026-05-05 20:55 | 50.39560 | 5.92876 | 35822 ft | 468 kts | 300° |
| 2026-05-05 20:56 | 50.42971 | 5.84208 | 35815 ft | 466 kts | 300° |
| 2026-05-05 20:56 | 50.46348 | 5.75583 | 35834 ft | 466 kts | 300° |
| 2026-05-05 20:57 | 50.49737 | 5.66896 | 35838 ft | 467 kts | 300° |
| 2026-05-05 20:57 | 50.53099 | 5.58226 | 35849 ft | 466 kts | 300° |
| 2026-05-05 20:58 | 50.56428 | 5.49483 | 35846 ft | 466 kts | 300° |
| 2026-05-05 20:58 | 50.59708 | 5.40792 | 35854 ft | 465 kts | 299° |
| 2026-05-05 20:59 | 50.63005 | 5.32022 | 35855 ft | 463 kts | 298° |
| 2026-05-05 20:59 | 50.66268 | 5.23324 | 35853 ft | 464 kts | 298° |
| 2026-05-05 21:00 | 50.69551 | 5.14553 | 35843 ft | 465 kts | 298° |
| 2026-05-05 21:00 | 50.72816 | 5.05809 | 35858 ft | 465 kts | 298° |
| 2026-05-05 21:01 | 50.76085 | 4.97034 | 35856 ft | 462 kts | 298° |
| 2026-05-05 21:01 | 50.79329 | 4.88295 | 35867 ft | 463 kts | 298° |
| 2026-05-05 21:02 | 50.82560 | 4.79560 | 35861 ft | 462 kts | 299° |
| 2026-05-05 21:02 | 50.84184 | 4.75151 | 35738 ft | 460 kts | 298° |
| 2026-05-05 21:02 | 50.85775 | 4.70824 | 35838 ft | 460 kts | 298° |
| 2026-05-05 21:03 | 50.89004 | 4.62022 | 36108 ft | 464 kts | 298° |
| 2026-05-05 21:03 | 50.90608 | 4.57637 | 35830 ft | 462 kts | 298° |
| 2026-05-05 21:03 | 50.92231 | 4.53201 | 35875 ft | 461 kts | 298° |
| 2026-05-05 21:04 | 50.95430 | 4.44436 | 35882 ft | 463 kts | 298° |
| 2026-05-05 21:04 | 50.98643 | 4.35602 | 35886 ft | 462 kts | 298° |
| 2026-05-05 21:05 | 51.01856 | 4.26734 | 35885 ft | 461 kts | 297° |
| 2026-05-05 21:05 | 51.05032 | 4.17937 | 35890 ft | 461 kts | 297° |
| 2026-05-05 21:06 | 51.08223 | 4.09067 | 35894 ft | 461 kts | 298° |
| 2026-05-05 21:06 | 51.11386 | 4.00244 | 35894 ft | 459 kts | 298° |
| 2026-05-05 21:07 | 51.14552 | 3.91378 | 35899 ft | 459 kts | 298° |
| 2026-05-05 21:07 | 51.17675 | 3.82596 | 35909 ft | 459 kts | 298° |
| 2026-05-05 21:08 | 51.20790 | 3.73809 | 35915 ft | 459 kts | 297° |
| 2026-05-05 21:08 | 51.23490 | 3.64636 | 35903 ft | 456 kts | 288° |
| 2026-05-05 21:09 | 51.25225 | 3.54972 | 35915 ft | 452 kts | 281° |
| 2026-05-05 21:09 | 51.26541 | 3.45194 | 35921 ft | 450 kts | 279° |
| 2026-05-05 21:10 | 51.27751 | 3.35456 | 35708 ft | 442 kts | 279° |
| 2026-05-05 21:10 | 51.28340 | 3.30649 | 35323 ft | 443 kts | 278° |
| 2026-05-05 21:10 | 51.28929 | 3.25856 | 34746 ft | 444 kts | 279° |
| 2026-05-05 21:11 | 51.29528 | 3.21015 | 34201 ft | 441 kts | 279° |
| 2026-05-05 21:11 | 51.30122 | 3.16258 | 33703 ft | 438 kts | 279° |
| 2026-05-05 21:11 | 51.30719 | 3.11511 | 33215 ft | 434 kts | 279° |
| 2026-05-05 21:11 | 51.31307 | 3.06837 | 32737 ft | 430 kts | 279° |
| 2026-05-05 21:12 | 51.31891 | 3.02205 | 32259 ft | 426 kts | 279° |
| 2026-05-05 21:12 | 51.32470 | 2.97603 | 31787 ft | 422 kts | 279° |
| 2026-05-05 21:12 | 51.33040 | 2.93066 | 31310 ft | 418 kts | 279° |
| 2026-05-05 21:12 | 51.33604 | 2.88551 | 30844 ft | 414 kts | 279° |
| 2026-05-05 21:13 | 51.34164 | 2.84062 | 30370 ft | 410 kts | 279° |
| 2026-05-05 21:13 | 51.34716 | 2.79626 | 29906 ft | 406 kts | 279° |
| 2026-05-05 21:13 | 51.35261 | 2.75244 | 29446 ft | 402 kts | 279° |
| 2026-05-05 21:13 | 51.35801 | 2.70875 | 28985 ft | 398 kts | 279° |
| 2026-05-05 21:14 | 51.36328 | 2.66608 | 28529 ft | 394 kts | 279° |
| 2026-05-05 21:14 | 51.36854 | 2.62356 | 28088 ft | 390 kts | 279° |
| 2026-05-05 21:14 | 51.37376 | 2.58119 | 27633 ft | 386 kts | 280° |
| 2026-05-05 21:14 | 51.37889 | 2.53946 | 27184 ft | 382 kts | 280° |
| 2026-05-05 21:15 | 51.38395 | 2.49799 | 26738 ft | 379 kts | 280° |
| 2026-05-05 21:15 | 51.38891 | 2.45709 | 26294 ft | 375 kts | 280° |
| 2026-05-05 21:15 | 51.39381 | 2.41660 | 25853 ft | 372 kts | 280° |
| 2026-05-05 21:15 | 51.39870 | 2.37599 | 25416 ft | 368 kts | 280° |
| 2026-05-05 21:16 | 51.40342 | 2.33651 | 24994 ft | 365 kts | 279° |
| 2026-05-05 21:16 | 51.40813 | 2.29686 | 24556 ft | 361 kts | 279° |
| 2026-05-05 21:16 | 51.41281 | 2.25747 | 24127 ft | 358 kts | 280° |
| 2026-05-05 21:16 | 51.41743 | 2.21905 | 23704 ft | 355 kts | 280° |
| 2026-05-05 21:17 | 51.42215 | 2.18020 | 23279 ft | 352 kts | 280° |
| 2026-05-05 21:17 | 51.42678 | 2.14222 | 22862 ft | 349 kts | 281° |
| 2026-05-05 21:17 | 51.43142 | 2.10417 | 22434 ft | 347 kts | 281° |
| 2026-05-05 21:17 | 51.43595 | 2.06691 | 22017 ft | 344 kts | 281° |
| 2026-05-05 21:18 | 51.44048 | 2.02960 | 21603 ft | 342 kts | 281° |
| 2026-05-05 21:18 | 51.44497 | 1.99249 | 21183 ft | 339 kts | 282° |
| 2026-05-05 21:18 | 51.44939 | 1.95542 | 20766 ft | 337 kts | 282° |
| 2026-05-05 21:18 | 51.45372 | 1.91877 | 20351 ft | 335 kts | 282° |
| 2026-05-05 21:19 | 51.45799 | 1.88242 | 19937 ft | 333 kts | 282° |
| 2026-05-05 21:19 | 51.46223 | 1.84609 | 19516 ft | 331 kts | 282° |
| 2026-05-05 21:19 | 51.46641 | 1.81008 | 19111 ft | 328 kts | 282° |
| 2026-05-05 21:19 | 51.47051 | 1.77468 | 18696 ft | 326 kts | 282° |
| 2026-05-05 21:20 | 51.47462 | 1.73894 | 18286 ft | 324 kts | 282° |
| 2026-05-05 21:20 | 51.47867 | 1.70364 | 17876 ft | 322 kts | 282° |
| 2026-05-05 21:20 | 51.48265 | 1.66885 | 17480 ft | 320 kts | 282° |
| 2026-05-05 21:20 | 51.48569 | 1.63357 | 17064 ft | 319 kts | 275° |
| 2026-05-05 21:21 | 51.48478 | 1.59833 | 16667 ft | 318 kts | 261° |
| 2026-05-05 21:21 | 51.47905 | 1.56418 | 16263 ft | 317 kts | 252° |
| 2026-05-05 21:21 | 51.47153 | 1.53120 | 15850 ft | 316 kts | 250° |
| 2026-05-05 21:21 | 51.46360 | 1.49852 | 15439 ft | 315 kts | 250° |
| 2026-05-05 21:22 | 51.45574 | 1.46599 | 15032 ft | 313 kts | 250° |
| 2026-05-05 21:22 | 51.44801 | 1.43329 | 14630 ft | 312 kts | 251° |
| 2026-05-05 21:22 | 51.43997 | 1.40143 | 14229 ft | 310 kts | 246° |
| 2026-05-05 21:22 | 51.42883 | 1.37207 | 13947 ft | 309 kts | 231° |
| 2026-05-05 21:23 | 51.41309 | 1.34823 | 13954 ft | 320 kts | 219° |
| 2026-05-05 21:23 | 51.39504 | 1.32635 | 13941 ft | 323 kts | 217° |
| 2026-05-05 21:23 | 51.37712 | 1.30542 | 13939 ft | 323 kts | 217° |
| 2026-05-05 21:23 | 51.35882 | 1.28419 | 13941 ft | 324 kts | 216° |
| 2026-05-05 21:24 | 51.34082 | 1.26324 | 13943 ft | 324 kts | 217° |
| 2026-05-05 21:24 | 51.32260 | 1.24194 | 13948 ft | 324 kts | 217° |
| 2026-05-05 21:24 | 51.30432 | 1.22050 | 13950 ft | 326 kts | 216° |
| 2026-05-05 21:24 | 51.28624 | 1.19922 | 13951 ft | 325 kts | 216° |
| 2026-05-05 21:25 | 51.26791 | 1.17764 | 13952 ft | 325 kts | 216° |
| 2026-05-05 21:25 | 51.24993 | 1.15647 | 13951 ft | 325 kts | 217° |
| 2026-05-05 21:25 | 51.23172 | 1.13502 | 13951 ft | 325 kts | 217° |
| 2026-05-05 21:25 | 51.21365 | 1.11379 | 13955 ft | 325 kts | 217° |
| 2026-05-05 21:26 | 51.19540 | 1.09237 | 13953 ft | 325 kts | 217° |
| 2026-05-05 21:26 | 51.17730 | 1.07117 | 13952 ft | 325 kts | 216° |
| 2026-05-05 21:26 | 51.15890 | 1.04965 | 13951 ft | 326 kts | 216° |
| 2026-05-05 21:26 | 51.14070 | 1.02838 | 13937 ft | 327 kts | 216° |
| 2026-05-05 21:27 | 51.12246 | 1.00710 | 13685 ft | 327 kts | 216° |
| 2026-05-05 21:27 | 51.10436 | 0.98570 | 13421 ft | 322 kts | 220° |
| 2026-05-05 21:27 | 51.09028 | 0.95889 | 13156 ft | 319 kts | 244° |
| 2026-05-05 21:27 | 51.08233 | 0.92594 | 12936 ft | 318 kts | 255° |
| 2026-05-05 21:28 | 51.07645 | 0.89202 | 12686 ft | 317 kts | 256° |
| 2026-05-05 21:28 | 51.07070 | 0.85876 | 12426 ft | 316 kts | 255° |
| 2026-05-05 21:28 | 51.06444 | 0.82503 | 12179 ft | 314 kts | 254° |
| 2026-05-05 21:28 | 51.05796 | 0.79217 | 11936 ft | 312 kts | 253° |
| 2026-05-05 21:29 | 51.05132 | 0.75970 | 11612 ft | 308 kts | 253° |
| 2026-05-05 21:29 | 51.04462 | 0.72765 | 11214 ft | 306 kts | 253° |
| 2026-05-05 21:29 | 51.03791 | 0.69574 | 10818 ft | 305 kts | 253° |
| 2026-05-05 21:29 | 51.03119 | 0.66387 | 10427 ft | 303 kts | 253° |
| 2026-05-05 21:30 | 51.02454 | 0.63242 | 10117 ft | 298 kts | 253° |
| 2026-05-05 21:30 | 51.01805 | 0.60176 | 9960 ft | 288 kts | 253° |
| 2026-05-05 21:30 | 51.01173 | 0.57185 | 9623 ft | 286 kts | 253° |
| 2026-05-05 21:30 | 51.00543 | 0.54208 | 9257 ft | 285 kts | 253° |
| 2026-05-05 21:31 | 50.99912 | 0.51224 | 8896 ft | 284 kts | 253° |
| 2026-05-05 21:31 | 50.99291 | 0.48294 | 8545 ft | 282 kts | 253° |
| 2026-05-05 21:31 | 50.98660 | 0.45338 | 8185 ft | 280 kts | 255° |
| 2026-05-05 21:31 | 50.98273 | 0.42339 | 7844 ft | 275 kts | 267° |
| 2026-05-05 21:32 | 50.98159 | 0.39346 | 7518 ft | 272 kts | 271° |
| 2026-05-05 21:32 | 50.98096 | 0.36361 | 7197 ft | 270 kts | 271° |
| 2026-05-05 21:32 | 50.98049 | 0.33442 | 6881 ft | 267 kts | 271° |
| 2026-05-05 21:32 | 50.98010 | 0.30489 | 6591 ft | 264 kts | 271° |
| 2026-05-05 21:33 | 50.97973 | 0.27629 | 6260 ft | 262 kts | 272° |
| 2026-05-05 21:33 | 50.98058 | 0.24744 | 5883 ft | 264 kts | 275° |
| 2026-05-05 21:33 | 50.98088 | 0.21821 | 5576 ft | 265 kts | 274° |
| 2026-05-05 21:33 | 50.98141 | 0.18915 | 5443 ft | 263 kts | 275° |
| 2026-05-05 21:34 | 50.98245 | 0.16034 | 5389 ft | 264 kts | 277° |
| 2026-05-05 21:34 | 50.98336 | 0.13095 | 5027 ft | 273 kts | 273° |
| 2026-05-05 21:34 | 50.98320 | 0.10051 | 4625 ft | 275 kts | 271° |
| 2026-05-05 21:34 | 50.98272 | 0.07049 | 4258 ft | 275 kts | 271° |
| 2026-05-05 21:35 | 50.98218 | 0.04039 | 4015 ft | 270 kts | 271° |
| 2026-05-05 21:35 | 50.98163 | 0.01138 | 3975 ft | 260 kts | 271° |
| 2026-05-05 21:35 | 50.98106 | -0.01752 | 3974 ft | 264 kts | 271° |
| 2026-05-05 21:35 | 50.98049 | -0.04673 | 3975 ft | 263 kts | 271° |
| 2026-05-05 21:36 | 50.97996 | -0.07548 | 3974 ft | 262 kts | 272° |
| 2026-05-05 21:36 | 50.98083 | -0.10442 | 3980 ft | 261 kts | 279° |
| 2026-05-05 21:36 | 50.98302 | -0.13269 | 3979 ft | 261 kts | 281° |
| 2026-05-05 21:36 | 50.98581 | -0.16118 | 3977 ft | 261 kts | 283° |
| 2026-05-05 21:37 | 50.98912 | -0.18932 | 3977 ft | 260 kts | 284° |
| 2026-05-05 21:37 | 50.99252 | -0.21757 | 3977 ft | 260 kts | 284° |
| 2026-05-05 21:37 | 50.99594 | -0.24588 | 3976 ft | 261 kts | 284° |
| 2026-05-05 21:37 | 50.99933 | -0.27392 | 3976 ft | 261 kts | 284° |
| 2026-05-05 21:38 | 51.00276 | -0.30213 | 3966 ft | 257 kts | 284° |
| 2026-05-05 21:38 | 51.00615 | -0.33002 | 3726 ft | 261 kts | 284° |
| 2026-05-05 21:38 | 51.00962 | -0.35846 | 3259 ft | 266 kts | 284° |
| 2026-05-05 21:38 | 51.01305 | -0.38673 | 2991 ft | 256 kts | 284° |
| 2026-05-05 21:39 | 51.01630 | -0.41386 | 2967 ft | 243 kts | 286° |
| 2026-05-05 21:39 | 51.02276 | -0.43697 | 2966 ft | 219 kts | 319° |
| 2026-05-05 21:39 | 51.03410 | -0.45038 | 2976 ft | 195 kts | 335° |
| 2026-05-05 21:39 | 51.04556 | -0.46045 | 2987 ft | 184 kts | 336° |
| 2026-05-05 21:40 | 51.05702 | -0.46917 | 2977 ft | 180 kts | 342° |
| 2026-05-05 21:40 | 51.06850 | -0.47685 | 2977 ft | 180 kts | 341° |
| 2026-05-05 21:40 | 51.07991 | -0.48513 | 2982 ft | 181 kts | 341° |
| 2026-05-05 21:40 | 51.09129 | -0.49349 | 2976 ft | 181 kts | 340° |
| 2026-05-05 21:41 | 51.10326 | -0.49898 | 2978 ft | 176 kts | 9° |
| 2026-05-05 21:41 | 51.11356 | -0.49043 | 2985 ft | 172 kts | 56° |
| 2026-05-05 21:41 | 51.11566 | -0.47242 | 2991 ft | 173 kts | 99° |
| 2026-05-05 21:41 | 51.11316 | -0.45393 | 2977 ft | 170 kts | 89° |
| 2026-05-05 21:42 | 51.11433 | -0.43546 | 2985 ft | 167 kts | 76° |
| 2026-05-05 21:42 | 51.11656 | -0.41790 | 2945 ft | 154 kts | 76° |
| 2026-05-05 21:42 | 51.11869 | -0.40176 | 2767 ft | 151 kts | 75° |
| 2026-05-05 21:42 | 51.12090 | -0.38584 | 2480 ft | 144 kts | 74° |
| 2026-05-05 21:43 | 51.12311 | -0.37020 | 2326 ft | 145 kts | 74° |
| 2026-05-05 21:43 | 51.12530 | -0.35456 | 2107 ft | 144 kts | 75° |
| 2026-05-05 21:43 | 51.12745 | -0.33913 | 1908 ft | 144 kts | 75° |
| 2026-05-05 21:43 | 51.12961 | -0.32360 | 1717 ft | 143 kts | 75° |
| 2026-05-05 21:44 | 51.13176 | -0.30820 | 1508 ft | 144 kts | 76° |
| 2026-05-05 21:44 | 51.13386 | -0.29251 | 1320 ft | 143 kts | 75° |
| 2026-05-05 21:44 | 51.13610 | -0.27716 | 1113 ft | 148 kts | 75° |
| 2026-05-05 21:44 | 51.13855 | -0.26114 | 908 ft | 146 kts | 76° |
| 2026-05-05 21:45 | 51.14054 | -0.24562 | 711 ft | 143 kts | 77° |
| 2026-05-05 21:45 | 51.14276 | -0.23020 | 531 ft | 146 kts | 77° |
| 2026-05-05 21:45 | 51.14494 | -0.21407 | 310 ft | 149 kts | 77° |
| 2026-05-05 21:45 | 51.14706 | -0.19834 | 194 ft | 138 kts | 77° |
| 2026-05-05 21:46 | 51.14868 | -0.18648 | 194 ft | 77 kts | 79° |
| 2026-05-05 21:46 | 51.14935 | -0.18172 | 194 ft | 33 kts | 76° |
| 2026-05-05 21:46 | 51.15043 | -0.17824 | 194 ft | 20 kts | 53° |
| 2026-05-05 21:46 | 51.15075 | -0.17773 | 194 ft | 0 kts | 29° |
| 2026-05-05 21:47 | 51.15115 | -0.17761 | 194 ft | 0 kts | 357° |
| 2026-05-05 21:47 | 51.15120 | -0.17761 | 194 ft | 1 kts | 355° |
| 2026-05-05 21:48 | 51.15161 | -0.17769 | 193 ft | 10 kts | 352° |
| 2026-05-05 21:48 | 51.15251 | -0.17741 | 191 ft | 15 kts | 56° |
| 2026-05-05 21:48 | 51.15279 | -0.17584 | 191 ft | 14 kts | 77° |
| 2026-05-05 21:48 | 51.15302 | -0.17423 | 188 ft | 16 kts | 66° |
| 2026-05-05 21:49 | 51.15370 | -0.17273 | 185 ft | 17 kts | 69° |
| 2026-05-05 21:49 | 51.15414 | -0.17098 | 184 ft | 16 kts | 76° |
| 2026-05-05 21:49 | 51.15438 | -0.16926 | 185 ft | 14 kts | 78° |
| 2026-05-05 21:49 | 51.15453 | -0.16797 | 188 ft | 8 kts | 88° |
| 2026-05-05 21:50 | 51.15451 | -0.16731 | 191 ft | 3 kts | 88° |
| 2026-05-05 21:50 | 51.15459 | -0.16652 | 194 ft | 12 kts | 78° |
| 2026-05-05 21:50 | 51.15491 | -0.16590 | 196 ft | 7 kts | 357° |
| 2026-05-05 21:50 | 51.15527 | -0.16599 | 196 ft | 2 kts | 348° |
| 2026-05-05 21:51 | 51.15528 | -0.16599 | 196 ft | 0 kts | 348° |